createdAt,value
2022-12-31T12:03:31.802Z,21.13
2022-12-31T12:04:31.699Z,21.07
2022-12-31T12:06:35.678Z,20.89
2022-12-31T12:07:35.678Z,20.78
2022-12-31T12:09:39.626Z,20.67
2022-12-31T12:10:39.589Z,20.55
2022-12-31T12:12:43.544Z,20.46
2022-12-31T12:13:43.526Z,20.33
2022-12-31T12:15:53.707Z,20.56
2022-12-31T12:16:53.121Z,20.60
2022-12-31T12:17:51.233Z,20.64
2022-12-31T12:18:51.030Z,20.52
2022-12-31T12:19:51.011Z,20.56
2022-12-31T12:20:53.409Z,20.67
2022-12-31T12:21:53.285Z,20.73
2022-12-31T12:22:50.789Z,20.92
2022-12-31T12:23:50.738Z,21.07
2022-12-31T12:24:50.728Z,21.30
2022-12-31T12:25:50.766Z,21.26
2022-12-31T12:26:50.707Z,21.29
2022-12-31T12:27:50.706Z,21.10
2022-12-31T12:28:50.686Z,21.04
2022-12-31T12:29:50.676Z,20.98
2022-12-31T12:30:50.667Z,20.86
2022-12-31T12:31:50.675Z,20.83
2022-12-31T12:32:50.646Z,20.70
2022-12-31T12:33:50.631Z,20.59
2022-12-31T12:34:50.619Z,20.56
2022-12-31T12:35:50.613Z,20.58
2022-12-31T12:36:50.601Z,20.66
2022-12-31T12:37:50.594Z,20.86
2022-12-31T12:38:50.581Z,21.19
2022-12-31T12:39:50.568Z,21.54
2022-12-31T12:40:50.561Z,21.66
2022-12-31T12:41:50.550Z,21.69
2022-12-31T12:42:50.584Z,21.60
2022-12-31T12:43:50.529Z,21.30
2022-12-31T12:44:50.526Z,21.15
2022-12-31T12:45:52.430Z,21.01
2022-12-31T12:46:50.554Z,21.05
2022-12-31T12:47:50.488Z,20.80
2022-12-31T12:48:50.499Z,20.83
2022-12-31T12:49:50.494Z,20.68
2022-12-31T12:50:50.468Z,20.70
2022-12-31T12:51:50.457Z,20.71
2022-12-31T12:52:53.851Z,20.67
2022-12-31T12:53:50.440Z,20.58
2022-12-31T12:54:50.418Z,20.56
2022-12-31T12:55:50.415Z,20.42
2022-12-31T12:56:50.391Z,20.21
2022-12-31T12:57:50.388Z,20.08
2022-12-31T12:58:50.375Z,19.90
2022-12-31T12:59:50.370Z,19.75
2022-12-31T13:00:50.398Z,19.66
2022-12-31T13:01:50.490Z,19.47
2022-12-31T13:02:50.420Z,19.47
2022-12-31T13:04:31.898Z,19.39
2022-12-31T13:04:50.317Z,19.26
2022-12-31T13:05:50.296Z,19.26
2022-12-31T13:06:50.295Z,19.20
2022-12-31T13:07:50.351Z,19.23
2022-12-31T13:08:50.310Z,19.26
2022-12-31T13:09:50.261Z,19.23
2022-12-31T13:10:50.329Z,19.27
2022-12-31T13:11:50.294Z,19.37
2022-12-31T13:13:22.795Z,19.35
2022-12-31T13:13:50.216Z,19.34
2022-12-31T13:14:50.238Z,19.24
2022-12-31T13:17:27.713Z,19.08
2022-12-31T13:18:25.682Z,19.09
2022-12-31T13:19:27.186Z,19.19
2022-12-31T13:20:25.604Z,19.34
2022-12-31T13:21:25.579Z,19.63
2022-12-31T13:22:25.597Z,19.85
2022-12-31T13:23:27.705Z,20.15
2022-12-31T13:24:25.510Z,20.30
2022-12-31T13:25:25.476Z,20.40
2022-12-31T13:26:25.465Z,20.36
2022-12-31T13:27:25.459Z,20.21
2022-12-31T13:28:25.505Z,20.12
2022-12-31T13:29:25.456Z,19.99
2022-12-31T13:30:25.531Z,19.78
2022-12-31T13:31:25.454Z,19.66
2022-12-31T13:32:25.493Z,19.47
2022-12-31T13:33:25.403Z,19.44
2022-12-31T13:34:25.387Z,19.38
2022-12-31T13:35:25.366Z,19.30
2022-12-31T13:36:25.357Z,19.26
2022-12-31T13:37:25.428Z,19.34
2022-12-31T13:38:25.744Z,19.22
2022-12-31T13:39:25.399Z,19.24
2022-12-31T13:40:25.405Z,19.07
2022-12-31T13:41:25.303Z,19.04
2022-12-31T13:42:25.291Z,19.04
2022-12-31T13:43:25.277Z,18.94
2022-12-31T13:46:35.163Z,18.98
2022-12-31T13:47:34.960Z,18.97
2022-12-31T13:48:36.935Z,18.85
2022-12-31T13:49:35.923Z,18.71
2022-12-31T13:50:36.378Z,18.68
2022-12-31T13:51:34.884Z,18.73
2022-12-31T13:52:40.353Z,18.70
2022-12-31T13:53:58.379Z,18.55
2022-12-31T13:54:34.878Z,18.51
2022-12-31T13:55:34.913Z,18.52
2022-12-31T13:56:34.776Z,18.49
2022-12-31T13:57:34.770Z,18.43
2022-12-31T13:58:34.945Z,18.33
2022-12-31T13:59:34.776Z,18.26
2022-12-31T14:00:34.731Z,18.19
2022-12-31T14:01:34.948Z,18.21
2022-12-31T14:02:34.840Z,18.11
2022-12-31T14:03:34.790Z,17.97
2022-12-31T14:04:34.706Z,17.88
2022-12-31T14:05:34.734Z,17.86
2022-12-31T14:06:34.666Z,17.84
2022-12-31T14:07:37.740Z,17.73
2022-12-31T14:08:34.672Z,17.71
2022-12-31T14:09:34.625Z,17.59
2022-12-31T14:10:34.612Z,17.47
2022-12-31T14:11:34.602Z,17.47
2022-12-31T14:12:34.608Z,17.59
2022-12-31T14:13:35.116Z,17.53
2022-12-31T14:14:34.567Z,17.46
2022-12-31T14:15:34.556Z,17.42
2022-12-31T14:16:34.555Z,17.38
2022-12-31T14:17:34.529Z,17.35
2022-12-31T14:18:34.575Z,17.35
2022-12-31T14:19:39.395Z,17.35
2022-12-31T14:20:34.541Z,17.31
2022-12-31T14:21:34.486Z,17.37
2022-12-31T14:22:34.473Z,17.27
2022-12-31T14:23:34.468Z,17.28
2022-12-31T14:24:34.458Z,17.31
2022-12-31T14:25:34.476Z,17.30
2022-12-31T14:26:34.423Z,17.24
2022-12-31T14:27:34.414Z,17.17
2022-12-31T14:28:34.400Z,17.17
2022-12-31T14:29:34.388Z,17.17
2022-12-31T14:30:34.372Z,17.16
2022-12-31T14:31:34.421Z,17.13
2022-12-31T14:32:34.367Z,17.10
2022-12-31T14:33:34.342Z,17.07
2022-12-31T14:34:34.331Z,17.09
2022-12-31T14:35:34.318Z,17.07
2022-12-31T14:36:34.309Z,17.02
2022-12-31T14:37:34.300Z,17.07
2022-12-31T14:38:34.407Z,17.07
2022-12-31T14:39:34.288Z,17.05
2022-12-31T14:40:34.287Z,17.13
2022-12-31T14:41:34.238Z,16.99
2022-12-31T14:42:34.226Z,17.13
2022-12-31T14:43:34.210Z,16.97
2022-12-31T14:44:34.201Z,16.98
2022-12-31T14:45:34.227Z,17.05
2022-12-31T14:46:34.173Z,16.92
2022-12-31T14:47:34.156Z,17.10
2022-12-31T14:48:34.152Z,17.01
2022-12-31T14:49:34.129Z,17.01
2022-12-31T14:50:34.147Z,16.97
2022-12-31T14:51:34.102Z,16.91
2022-12-31T14:52:34.090Z,16.87
2022-12-31T14:53:34.089Z,16.83
2022-12-31T14:54:34.069Z,16.82
2022-12-31T14:55:34.068Z,16.76
2022-12-31T14:56:34.075Z,16.74
2022-12-31T14:57:47.486Z,16.82
2022-12-31T14:58:34.014Z,16.73
2022-12-31T14:59:40.129Z,16.66
2022-12-31T15:00:33.990Z,16.66
2022-12-31T15:01:34.048Z,16.68
2022-12-31T15:02:35.994Z,16.76
2022-12-31T15:03:33.955Z,16.65
2022-12-31T15:04:33.943Z,16.72
2022-12-31T15:05:33.980Z,16.61
2022-12-31T15:06:33.930Z,16.57
2022-12-31T15:07:33.906Z,16.55
2022-12-31T15:08:33.886Z,16.47
2022-12-31T15:09:33.872Z,16.46
2022-12-31T15:10:33.863Z,16.39
2022-12-31T15:11:33.867Z,16.43
2022-12-31T15:12:33.901Z,16.28
2022-12-31T15:13:33.919Z,16.29
2022-12-31T15:14:37.496Z,16.31
2022-12-31T15:15:33.896Z,16.25
2022-12-31T15:16:33.908Z,16.24
2022-12-31T15:17:33.780Z,16.22
2022-12-31T15:18:33.759Z,16.21
2022-12-31T15:19:33.746Z,16.21
2022-12-31T15:20:33.737Z,16.09
2022-12-31T15:21:33.724Z,16.05
2022-12-31T15:22:33.705Z,15.98
2022-12-31T15:23:33.692Z,15.96
2022-12-31T15:24:33.680Z,15.90
2022-12-31T15:25:40.058Z,15.88
2022-12-31T15:26:33.660Z,15.85
2022-12-31T15:27:33.648Z,15.90
2022-12-31T15:28:33.633Z,15.94
2022-12-31T15:29:33.627Z,15.91
2022-12-31T15:30:33.645Z,15.72
2022-12-31T15:31:33.650Z,15.88
2022-12-31T15:32:33.575Z,15.88
2022-12-31T15:33:33.560Z,15.87
2022-12-31T15:34:33.556Z,15.83
2022-12-31T15:35:33.559Z,15.80
2022-12-31T15:36:33.534Z,15.78
2022-12-31T15:37:33.515Z,15.83
2022-12-31T15:38:33.513Z,15.87
2022-12-31T15:39:33.488Z,15.83
2022-12-31T15:40:33.475Z,15.91
2022-12-31T15:41:33.463Z,15.94
2022-12-31T15:42:38.294Z,15.87
2022-12-31T15:43:33.434Z,16.00
2022-12-31T15:44:33.431Z,15.98
2022-12-31T15:45:33.441Z,15.96
2022-12-31T15:46:33.422Z,15.99
2022-12-31T15:47:33.409Z,15.99
2022-12-31T15:48:33.370Z,15.96
2022-12-31T15:49:33.348Z,16.00
2022-12-31T15:50:33.355Z,16.00
2022-12-31T15:51:33.339Z,16.00
2022-12-31T15:52:33.311Z,15.99
2022-12-31T15:53:33.307Z,15.99
2022-12-31T15:54:33.292Z,15.99
2022-12-31T15:55:33.311Z,16.02
2022-12-31T15:56:33.270Z,15.88
2022-12-31T15:57:33.278Z,15.90
2022-12-31T15:58:33.256Z,15.87
2022-12-31T15:59:33.221Z,15.87
2022-12-31T16:00:33.220Z,15.92
2022-12-31T16:01:33.322Z,15.87
2022-12-31T16:02:33.369Z,15.80
2022-12-31T16:03:33.201Z,15.84
2022-12-31T16:04:33.162Z,15.88
2022-12-31T16:05:33.137Z,15.80
2022-12-31T16:06:33.141Z,15.78
2022-12-31T16:07:33.120Z,15.78
2022-12-31T16:08:33.106Z,15.76
2022-12-31T16:09:33.095Z,15.81
2022-12-31T16:10:33.130Z,15.76
2022-12-31T16:11:33.063Z,15.73
2022-12-31T16:12:35.091Z,15.76
2022-12-31T16:13:33.948Z,15.72
2022-12-31T16:14:33.033Z,15.72
2022-12-31T16:15:33.117Z,15.66
2022-12-31T16:16:33.000Z,15.67
2022-12-31T16:17:32.994Z,15.66
2022-12-31T16:18:32.976Z,15.66
2022-12-31T16:19:32.978Z,15.69
2022-12-31T16:20:32.942Z,15.70
2022-12-31T16:21:32.998Z,15.66
2022-12-31T16:22:32.925Z,15.69
2022-12-31T16:23:36.225Z,15.69
2022-12-31T16:24:32.935Z,15.65
2022-12-31T16:25:33.717Z,15.69
2022-12-31T16:26:32.866Z,15.65
2022-12-31T16:27:32.848Z,15.65
2022-12-31T16:28:32.852Z,15.69
2022-12-31T16:29:32.824Z,15.73
2022-12-31T16:30:32.815Z,15.70
2022-12-31T16:31:32.843Z,15.72
2022-12-31T16:32:32.782Z,15.69
2022-12-31T16:33:32.768Z,15.69
2022-12-31T16:34:32.768Z,15.67
2022-12-31T16:35:32.740Z,15.67
2022-12-31T16:36:32.736Z,15.78
2022-12-31T16:37:32.712Z,15.78
2022-12-31T16:38:32.707Z,15.76
2022-12-31T16:39:32.686Z,15.75
2022-12-31T16:40:32.678Z,15.69
2022-12-31T16:41:32.664Z,15.81
2022-12-31T16:42:32.651Z,15.69
2022-12-31T16:43:32.640Z,15.73
2022-12-31T16:44:32.623Z,15.69
2022-12-31T16:45:32.613Z,15.73
2022-12-31T16:46:32.636Z,15.81
2022-12-31T16:47:32.653Z,15.78
2022-12-31T16:48:32.587Z,15.85
2022-12-31T16:49:32.614Z,15.90
2022-12-31T16:50:32.555Z,15.87
2022-12-31T16:51:32.554Z,15.85
2022-12-31T16:52:32.547Z,15.85
2022-12-31T16:53:32.504Z,15.88
2022-12-31T16:54:32.492Z,15.87
2022-12-31T16:55:32.473Z,15.87
2022-12-31T16:56:32.460Z,15.88
2022-12-31T16:57:32.452Z,15.81
2022-12-31T16:58:32.450Z,15.80
2022-12-31T16:59:35.351Z,15.76
2022-12-31T17:00:32.430Z,15.80
2022-12-31T17:01:32.526Z,15.76
2022-12-31T17:02:32.424Z,15.75
2022-12-31T17:03:32.391Z,15.81
2022-12-31T17:04:32.359Z,15.73
2022-12-31T17:05:32.349Z,15.75
2022-12-31T17:06:32.325Z,15.78
2022-12-31T17:07:32.434Z,15.69
2022-12-31T17:08:32.305Z,15.72
2022-12-31T17:09:32.316Z,15.65
2022-12-31T17:10:32.280Z,15.72
2022-12-31T17:11:33.241Z,15.70
2022-12-31T17:12:46.649Z,15.72
2022-12-31T17:13:32.241Z,15.63
2022-12-31T17:14:32.221Z,15.55
2022-12-31T17:15:32.209Z,15.69
2022-12-31T17:16:32.238Z,15.69
2022-12-31T17:17:32.175Z,15.69
2022-12-31T17:18:32.166Z,15.73
2022-12-31T17:19:32.150Z,15.66
2022-12-31T17:20:32.142Z,15.80
2022-12-31T17:21:32.140Z,15.88
2022-12-31T17:22:36.737Z,15.87
2022-12-31T17:23:32.113Z,15.88
2022-12-31T17:24:32.090Z,15.90
2022-12-31T17:25:32.068Z,15.90
2022-12-31T17:26:32.124Z,15.92
2022-12-31T17:27:32.045Z,15.76
2022-12-31T17:28:32.028Z,15.83
2022-12-31T17:29:32.037Z,15.81
2022-12-31T17:30:32.025Z,15.76
2022-12-31T17:31:32.048Z,15.73
2022-12-31T17:32:32.028Z,15.81
2022-12-31T17:33:31.966Z,15.73
2022-12-31T17:34:31.955Z,15.70
2022-12-31T17:35:31.946Z,15.80
2022-12-31T17:36:31.930Z,15.66
2022-12-31T17:37:32.068Z,15.60
2022-12-31T17:38:31.927Z,15.67
2022-12-31T17:39:31.901Z,15.54
2022-12-31T17:41:31.852Z,15.47
2022-12-31T17:42:31.843Z,15.41
2022-12-31T17:43:35.191Z,15.47
2022-12-31T17:44:31.815Z,15.45
2022-12-31T17:45:31.799Z,15.45
2022-12-31T17:46:31.801Z,15.47
2022-12-31T17:47:31.778Z,15.57
2022-12-31T17:48:31.764Z,15.54
2022-12-31T17:49:31.759Z,15.59
2022-12-31T17:50:31.737Z,15.54
2022-12-31T17:51:31.724Z,15.52
2022-12-31T17:52:31.712Z,15.60
2022-12-31T17:53:31.707Z,15.48
2022-12-31T17:54:31.685Z,15.45
2022-12-31T17:55:31.666Z,15.37
2022-12-31T17:56:31.653Z,15.48
2022-12-31T17:57:31.644Z,15.48
2022-12-31T17:58:31.639Z,15.47
2022-12-31T17:59:31.629Z,15.50
2022-12-31T18:00:31.631Z,15.48
2022-12-31T18:01:31.702Z,15.51
2022-12-31T18:02:31.674Z,15.54
2022-12-31T18:03:31.566Z,15.55
2022-12-31T18:04:31.549Z,15.59
2022-12-31T18:05:31.533Z,15.65
2022-12-31T18:06:31.524Z,15.57
2022-12-31T18:07:31.520Z,15.52
2022-12-31T18:08:31.497Z,15.66
2022-12-31T18:09:31.482Z,15.67
2022-12-31T18:10:31.475Z,15.81
2022-12-31T18:11:31.463Z,15.78
2022-12-31T18:12:31.445Z,15.80
2022-12-31T18:13:31.429Z,15.83
2022-12-31T18:14:31.415Z,15.92
2022-12-31T18:15:31.404Z,15.98
2022-12-31T18:16:31.424Z,16.02
2022-12-31T18:17:31.379Z,16.05
2022-12-31T18:18:31.374Z,16.08
2022-12-31T18:20:03.534Z,15.96
2022-12-31T18:20:31.330Z,16.00
2022-12-31T18:21:31.328Z,15.94
2022-12-31T18:22:31.307Z,15.88
2022-12-31T18:23:31.305Z,15.80
2022-12-31T18:24:31.309Z,15.66
2022-12-31T18:25:31.293Z,15.73
2022-12-31T18:26:31.255Z,15.72
2022-12-31T18:27:31.242Z,15.69
2022-12-31T18:28:31.226Z,15.60
2022-12-31T18:29:31.214Z,15.63
2022-12-31T18:30:31.218Z,15.69
2022-12-31T18:31:31.286Z,15.55
2022-12-31T18:32:31.179Z,15.55
2022-12-31T18:33:31.209Z,15.65
2022-12-31T18:34:31.145Z,15.55
2022-12-31T18:36:07.289Z,15.57
2022-12-31T18:36:31.125Z,15.60
2022-12-31T18:37:31.103Z,15.63
2022-12-31T18:38:31.093Z,15.55
2022-12-31T18:39:31.088Z,15.66
2022-12-31T18:40:31.071Z,15.59
2022-12-31T18:41:31.061Z,15.67
2022-12-31T18:42:31.044Z,15.59
2022-12-31T18:43:31.021Z,15.55
2022-12-31T18:44:31.023Z,15.60
2022-12-31T18:45:31.041Z,15.55
2022-12-31T18:46:30.990Z,15.55
2022-12-31T18:47:37.357Z,15.60
2022-12-31T18:48:30.961Z,15.65
2022-12-31T18:49:30.946Z,15.50
2022-12-31T18:50:30.939Z,15.54
2022-12-31T18:51:32.371Z,15.60
2022-12-31T18:52:30.937Z,15.55
2022-12-31T18:53:30.896Z,15.54
2022-12-31T18:54:30.884Z,15.67
2022-12-31T18:55:30.876Z,15.59
2022-12-31T18:56:30.863Z,15.59
2022-12-31T18:57:30.838Z,15.52
2022-12-31T18:58:30.822Z,15.55
2022-12-31T18:59:30.818Z,15.52
2022-12-31T19:00:30.796Z,15.55
2022-12-31T19:01:30.914Z,15.50
2022-12-31T19:02:30.769Z,15.43
2022-12-31T19:03:30.863Z,15.51
2022-12-31T19:04:30.741Z,15.55
2022-12-31T19:05:30.735Z,15.50
2022-12-31T19:06:30.720Z,15.55
2022-12-31T19:07:30.712Z,15.50
2022-12-31T19:08:30.692Z,15.57
2022-12-31T19:09:45.304Z,15.62
2022-12-31T19:10:30.663Z,15.63
2022-12-31T19:11:30.652Z,15.67
2022-12-31T19:12:30.639Z,15.62
2022-12-31T19:13:30.636Z,15.63
2022-12-31T19:14:30.615Z,15.55
2022-12-31T19:15:30.597Z,15.63
2022-12-31T19:16:30.643Z,15.70
2022-12-31T19:17:30.574Z,15.67
2022-12-31T19:18:30.583Z,15.80
2022-12-31T19:19:30.547Z,15.80
2022-12-31T19:20:30.585Z,15.91
2022-12-31T19:21:30.514Z,15.88
2022-12-31T19:22:30.501Z,15.94
2022-12-31T19:23:30.530Z,15.90
2022-12-31T19:24:30.472Z,15.84
2022-12-31T19:25:30.460Z,15.88
2022-12-31T19:26:30.454Z,15.94
2022-12-31T19:27:30.438Z,15.98
2022-12-31T19:28:30.430Z,15.94
2022-12-31T19:29:30.405Z,15.99
2022-12-31T19:30:30.408Z,15.94
2022-12-31T19:31:30.422Z,15.83
2022-12-31T19:32:30.372Z,15.90
2022-12-31T19:33:30.363Z,15.84
2022-12-31T19:34:30.352Z,15.75
2022-12-31T19:35:30.331Z,15.81
2022-12-31T19:36:30.315Z,15.84
2022-12-31T19:37:30.293Z,15.91
2022-12-31T19:38:30.284Z,15.85
2022-12-31T19:39:30.278Z,15.75
2022-12-31T19:40:30.257Z,15.76
2022-12-31T19:41:30.245Z,15.81
2022-12-31T19:42:30.455Z,15.75
2022-12-31T19:43:30.225Z,15.76
2022-12-31T19:44:30.210Z,15.78
2022-12-31T19:45:30.366Z,15.83
2022-12-31T19:46:30.227Z,15.81
2022-12-31T19:47:30.233Z,15.66
2022-12-31T19:48:32.874Z,15.65
2022-12-31T19:49:30.796Z,15.67
2022-12-31T19:50:30.816Z,15.66
2022-12-31T19:51:30.799Z,15.69
2022-12-31T19:52:30.145Z,15.76
2022-12-31T19:53:30.120Z,15.70
2022-12-31T19:54:30.077Z,15.69
2022-12-31T19:55:30.072Z,15.69
2022-12-31T19:56:30.049Z,15.60
2022-12-31T19:57:30.039Z,15.62
2022-12-31T19:58:30.025Z,15.50
2022-12-31T19:59:30.003Z,15.55
2022-12-31T20:00:29.988Z,15.50
2022-12-31T20:01:30.186Z,15.50
2022-12-31T20:02:30.150Z,15.54
2022-12-31T20:03:30.040Z,15.48
2022-12-31T20:04:29.943Z,15.50
2022-12-31T20:05:29.931Z,15.48
2022-12-31T20:06:29.917Z,15.51
2022-12-31T20:07:29.908Z,15.51
2022-12-31T20:08:29.891Z,15.54
2022-12-31T20:09:29.934Z,15.48
2022-12-31T20:10:29.860Z,15.55
2022-12-31T20:11:29.861Z,15.52
2022-12-31T20:12:29.828Z,15.52
2022-12-31T20:13:29.820Z,15.54
2022-12-31T20:14:29.796Z,15.47
2022-12-31T20:15:29.845Z,15.47
2022-12-31T20:16:29.853Z,15.44
2022-12-31T20:17:29.761Z,15.45
2022-12-31T20:18:29.739Z,15.50
2022-12-31T20:19:29.748Z,15.47
2022-12-31T20:20:29.714Z,15.48
2022-12-31T20:21:29.723Z,15.41
2022-12-31T20:22:29.699Z,15.48
2022-12-31T20:23:29.686Z,15.45
2022-12-31T20:24:29.663Z,15.39
2022-12-31T20:25:29.660Z,15.35
2022-12-31T20:26:29.637Z,15.37
2022-12-31T20:27:29.627Z,15.43
2022-12-31T20:28:29.610Z,15.39
2022-12-31T20:29:29.601Z,15.43
2022-12-31T20:30:29.601Z,15.45
2022-12-31T20:31:29.587Z,15.41
2022-12-31T20:32:29.556Z,15.39
2022-12-31T20:33:29.542Z,15.37
2022-12-31T20:34:29.544Z,15.41
2022-12-31T20:35:29.515Z,15.35
2022-12-31T20:36:29.507Z,15.32
2022-12-31T20:37:29.486Z,15.32
2022-12-31T20:38:29.489Z,15.32
2022-12-31T20:39:29.460Z,15.35
2022-12-31T20:40:29.439Z,15.35
2022-12-31T20:41:29.423Z,15.36
2022-12-31T20:42:29.411Z,15.36
2022-12-31T20:43:29.407Z,15.33
2022-12-31T20:44:29.407Z,15.30
2022-12-31T20:45:29.377Z,15.26
2022-12-31T20:46:29.395Z,15.27
2022-12-31T20:47:29.399Z,15.30
2022-12-31T20:48:29.331Z,15.32
2022-12-31T20:50:00.903Z,15.33
2022-12-31T20:50:29.306Z,15.36
2022-12-31T20:51:29.292Z,15.35
2022-12-31T20:52:29.275Z,15.36
2022-12-31T20:53:29.822Z,15.32
2022-12-31T20:54:29.828Z,15.29
2022-12-31T20:55:29.238Z,15.29
2022-12-31T20:56:29.230Z,15.32
2022-12-31T20:57:33.560Z,15.30
2022-12-31T20:58:29.194Z,15.29
2022-12-31T20:59:29.837Z,15.23
2022-12-31T21:00:29.825Z,15.30
2022-12-31T21:01:41.860Z,15.27
2022-12-31T21:02:40.984Z,15.27
2022-12-31T21:04:29.270Z,15.32
2022-12-31T21:05:29.453Z,15.26
2022-12-31T21:06:29.108Z,15.30
2022-12-31T21:07:29.076Z,15.27
2022-12-31T21:08:34.614Z,15.33
2022-12-31T21:09:29.046Z,15.30
2022-12-31T21:10:29.037Z,15.29
2022-12-31T21:11:29.022Z,15.25
2022-12-31T21:12:29.016Z,15.29
2022-12-31T21:13:28.993Z,15.33
2022-12-31T21:14:28.976Z,15.23
2022-12-31T21:15:29.073Z,15.36
2022-12-31T21:16:28.950Z,15.33
2022-12-31T21:17:28.948Z,15.27
2022-12-31T21:18:28.924Z,15.30
2022-12-31T21:19:28.914Z,15.33
2022-12-31T21:20:28.906Z,15.32
2022-12-31T21:21:28.896Z,15.15
2022-12-31T21:22:28.903Z,15.15
2022-12-31T21:23:28.852Z,15.22
2022-12-31T21:24:28.839Z,15.25
2022-12-31T21:25:28.830Z,15.26
2022-12-31T21:26:28.818Z,15.39
2022-12-31T21:27:28.799Z,15.41
2022-12-31T21:28:28.784Z,15.30
2022-12-31T21:29:34.052Z,15.32
2022-12-31T21:30:28.751Z,15.30
2022-12-31T21:31:28.794Z,15.25
2022-12-31T21:32:28.735Z,15.33
2022-12-31T21:33:28.713Z,15.30
2022-12-31T21:34:28.720Z,15.33
2022-12-31T21:35:42.623Z,15.30
2022-12-31T21:36:28.677Z,15.26
2022-12-31T21:37:59.198Z,15.32
2022-12-31T21:38:28.646Z,15.33
2022-12-31T21:39:28.637Z,15.35
2022-12-31T21:40:28.642Z,15.36
2022-12-31T21:41:32.915Z,15.45
2022-12-31T21:42:28.590Z,15.52
2022-12-31T21:43:28.580Z,15.54
2022-12-31T21:44:28.577Z,15.55
2022-12-31T21:45:28.594Z,15.52
2022-12-31T21:46:28.645Z,15.54
2022-12-31T21:47:39.707Z,15.48
2022-12-31T21:48:28.518Z,15.60
2022-12-31T21:49:28.544Z,15.63
2022-12-31T21:50:28.511Z,15.48
2022-12-31T21:51:28.507Z,15.57
2022-12-31T21:52:28.475Z,15.57
2022-12-31T21:53:36.248Z,15.50
2022-12-31T21:54:28.465Z,15.55
2022-12-31T21:55:28.469Z,15.52
2022-12-31T21:56:28.406Z,15.51
2022-12-31T21:57:28.396Z,15.54
2022-12-31T21:58:28.675Z,15.62
2022-12-31T21:59:28.371Z,15.55
2022-12-31T22:00:43.997Z,15.69
2022-12-31T22:01:28.419Z,15.69
2022-12-31T22:02:28.481Z,15.75
2022-12-31T22:03:28.564Z,15.60
2022-12-31T22:05:01.781Z,15.57
2022-12-31T22:05:28.277Z,15.57
2022-12-31T22:06:28.276Z,15.52
2022-12-31T22:07:28.250Z,15.47
2022-12-31T22:08:28.249Z,15.45
2022-12-31T22:09:28.245Z,15.44
2022-12-31T22:10:28.210Z,15.52
2022-12-31T22:11:28.216Z,15.41
2022-12-31T22:12:28.242Z,15.47
2022-12-31T22:13:28.177Z,15.39
2022-12-31T22:14:28.155Z,15.44
2022-12-31T22:15:28.147Z,15.48
2022-12-31T22:16:28.387Z,15.36
2022-12-31T22:17:28.120Z,15.35
2022-12-31T22:18:28.115Z,15.32
2022-12-31T22:19:28.100Z,15.32
2022-12-31T22:20:28.816Z,15.33
2022-12-31T22:21:28.067Z,15.29
2022-12-31T22:22:28.045Z,15.30
2022-12-31T22:23:28.038Z,15.19
2022-12-31T22:24:28.019Z,15.22
2022-12-31T22:25:28.009Z,15.11
2022-12-31T22:26:27.999Z,15.07
2022-12-31T22:27:29.903Z,15.08
2022-12-31T22:28:38.229Z,15.05
2022-12-31T22:29:27.967Z,15.04
2022-12-31T22:30:27.979Z,15.11
2022-12-31T22:31:27.978Z,15.05
2022-12-31T22:32:27.925Z,15.07
2022-12-31T22:33:27.894Z,15.04
2022-12-31T22:34:27.881Z,14.96
2022-12-31T22:35:27.868Z,15.00
2022-12-31T22:36:27.853Z,15.04
2022-12-31T22:37:55.494Z,14.97
2022-12-31T22:38:27.847Z,14.92
2022-12-31T22:39:43.242Z,14.85
2022-12-31T22:40:27.797Z,14.93
2022-12-31T22:41:27.817Z,14.94
2022-12-31T22:42:27.773Z,14.81
2022-12-31T22:43:27.758Z,14.89
2022-12-31T22:44:27.745Z,14.78
2022-12-31T22:45:27.734Z,14.79
2022-12-31T22:46:27.823Z,14.81
2022-12-31T22:47:27.711Z,14.82
2022-12-31T22:48:27.735Z,14.85
2022-12-31T22:49:27.670Z,14.85
2022-12-31T22:50:27.661Z,14.93
2022-12-31T22:51:57.332Z,14.92
2022-12-31T22:52:27.639Z,14.94
2022-12-31T22:53:27.627Z,14.87
2022-12-31T22:54:27.602Z,14.87
2022-12-31T22:55:27.654Z,14.79
2022-12-31T22:56:27.574Z,14.89
2022-12-31T22:57:27.580Z,14.79
2022-12-31T22:58:27.546Z,14.73
2022-12-31T22:59:27.542Z,14.70
2022-12-31T23:00:27.574Z,14.70
2022-12-31T23:01:27.568Z,14.66
2022-12-31T23:02:27.513Z,14.70
2022-12-31T23:03:27.517Z,14.71
2022-12-31T23:04:27.526Z,14.70
2022-12-31T23:05:27.466Z,14.63
2022-12-31T23:06:27.436Z,14.59
2022-12-31T23:07:27.450Z,14.59
2022-12-31T23:08:27.421Z,14.61
2022-12-31T23:09:27.394Z,14.58
2022-12-31T23:10:27.384Z,14.52
2022-12-31T23:11:27.411Z,14.53
2022-12-31T23:12:27.353Z,14.51
2022-12-31T23:13:27.351Z,14.49
2022-12-31T23:14:27.334Z,14.51
2022-12-31T23:15:27.311Z,14.45
2022-12-31T23:16:27.396Z,14.51
2022-12-31T23:17:29.733Z,14.41
2022-12-31T23:18:27.272Z,14.43
2022-12-31T23:19:27.273Z,14.33
2022-12-31T23:20:27.237Z,14.38
2022-12-31T23:21:27.223Z,14.36
2022-12-31T23:22:27.251Z,14.34
2022-12-31T23:23:27.199Z,14.34
2022-12-31T23:24:27.186Z,14.30
2022-12-31T23:25:27.171Z,14.23
2022-12-31T23:26:27.207Z,14.25
2022-12-31T23:28:27.137Z,14.38
2022-12-31T23:29:27.134Z,14.33
2022-12-31T23:30:27.100Z,14.31
2022-12-31T23:31:27.101Z,14.33
2022-12-31T23:32:27.087Z,14.37
2022-12-31T23:33:27.059Z,14.48
2022-12-31T23:34:48.076Z,14.45
2022-12-31T23:35:27.039Z,14.45
2022-12-31T23:36:27.016Z,14.48
2022-12-31T23:37:27.012Z,14.43
2022-12-31T23:38:26.990Z,14.53
2022-12-31T23:39:26.972Z,14.52
2022-12-31T23:40:47.965Z,14.41
2022-12-31T23:41:26.945Z,14.43
2022-12-31T23:42:26.974Z,14.51
2022-12-31T23:43:26.929Z,14.48
2022-12-31T23:44:26.906Z,14.49
2022-12-31T23:45:32.636Z,14.41
2022-12-31T23:46:47.910Z,14.36
2022-12-31T23:47:26.864Z,14.38
2022-12-31T23:48:26.859Z,14.36
2022-12-31T23:49:26.831Z,14.31
2022-12-31T23:50:26.817Z,14.37
2022-12-31T23:51:26.797Z,14.26
2022-12-31T23:52:47.794Z,14.19
2022-12-31T23:53:26.782Z,14.19
2022-12-31T23:54:26.766Z,14.15
2022-12-31T23:55:26.745Z,14.13
2022-12-31T23:56:26.800Z,14.11
2022-12-31T23:57:26.727Z,14.07
2022-12-31T23:58:47.720Z,13.98
2022-12-31T23:59:26.699Z,13.95
